sensor_id;sensor_type;location;lat;lon;timestamp;pressure;altitude;pressure_sealevel;temperature;humidity
55733;BME280;41637;52.364;9.910;2022-12-18T00:01:57;102262.43;;;-8.29;80.81
55733;BME280;41637;52.364;9.910;2022-12-18T00:04:26;102267.41;;;-8.30;81.08
55733;BME280;41637;52.364;9.910;2022-12-18T00:06:53;102272.05;;;-8.31;81.14
55733;BME280;41637;52.364;9.910;2022-12-18T00:09:20;102275.35;;;-8.33;80.84
55733;BME280;41637;52.364;9.910;2022-12-18T00:11:50;102272.45;;;-8.36;80.97
55733;BME280;41637;52.364;9.910;2022-12-18T00:14:16;102270.24;;;-8.38;81.10
55733;BME280;41637;52.364;9.910;2022-12-18T00:16:45;102273.89;;;-8.41;81.25
55733;BME280;41637;52.364;9.910;2022-12-18T00:19:14;102275.47;;;-8.43;81.16
55733;BME280;41637;52.364;9.910;2022-12-18T00:21:41;102276.52;;;-8.46;81.20
55733;BME280;41637;52.364;9.910;2022-12-18T00:24:09;102280.84;;;-8.47;81.28
55733;BME280;41637;52.364;9.910;2022-12-18T00:26:36;102283.42;;;-8.49;81.08
55733;BME280;41637;52.364;9.910;2022-12-18T00:29:12;102286.20;;;-8.53;81.01
55733;BME280;41637;52.364;9.910;2022-12-18T00:31:40;102287.75;;;-8.54;81.36
55733;BME280;41637;52.364;9.910;2022-12-18T00:34:12;102285.68;;;-8.53;81.28
55733;BME280;41637;52.364;9.910;2022-12-18T00:36:40;102284.13;;;-8.52;81.78
55733;BME280;41637;52.364;9.910;2022-12-18T00:39:07;102284.98;;;-8.52;81.84
55733;BME280;41637;52.364;9.910;2022-12-18T00:41:34;102286.02;;;-8.53;81.68
55733;BME280;41637;52.364;9.910;2022-12-18T00:44:19;102288.77;;;-8.53;81.61
55733;BME280;41637;52.364;9.910;2022-12-18T00:46:47;102289.97;;;-8.54;81.51
55733;BME280;41637;52.364;9.910;2022-12-18T00:49:16;102289.48;;;-8.55;81.35
55733;BME280;41637;52.364;9.910;2022-12-18T00:51:45;102298.73;;;-8.55;81.53
55733;BME280;41637;52.364;9.910;2022-12-18T00:54:11;102300.65;;;-8.59;81.40
55733;BME280;41637;52.364;9.910;2022-12-18T00:56:39;102304.45;;;-8.60;81.34
55733;BME280;41637;52.364;9.910;2022-12-18T00:59:14;102310.27;;;-8.60;81.40
55733;BME280;41637;52.364;9.910;2022-12-18T01:01:40;102305.83;;;-8.61;81.89
55733;BME280;41637;52.364;9.910;2022-12-18T01:04:07;102307.89;;;-8.64;81.82
55733;BME280;41637;52.364;9.910;2022-12-18T01:06:34;102309.12;;;-8.65;81.26
55733;BME280;41637;52.364;9.910;2022-12-18T01:09:01;102307.59;;;-8.67;81.53
55733;BME280;41637;52.364;9.910;2022-12-18T01:11:30;102308.61;;;-8.67;81.69
55733;BME280;41637;52.364;9.910;2022-12-18T01:13:59;102305.87;;;-8.67;81.77
55733;BME280;41637;52.364;9.910;2022-12-18T01:16:26;102305.54;;;-8.69;81.71
55733;BME280;41637;52.364;9.910;2022-12-18T01:18:53;102296.11;;;-8.70;81.87
55733;BME280;41637;52.364;9.910;2022-12-18T01:21:21;102292.85;;;-8.69;82.61
55733;BME280;41637;52.364;9.910;2022-12-18T01:23:53;102293.54;;;-8.68;82.75
55733;BME280;41637;52.364;9.910;2022-12-18T01:26:21;102299.67;;;-8.65;83.04
55733;BME280;41637;52.364;9.910;2022-12-18T01:28:47;102302.89;;;-8.60;83.25
55733;BME280;41637;52.364;9.910;2022-12-18T01:31:20;102305.94;;;-8.55;83.05
55733;BME280;41637;52.364;9.910;2022-12-18T01:33:48;102303.52;;;-8.55;82.80
55733;BME280;41637;52.364;9.910;2022-12-18T01:36:21;102310.23;;;-8.54;82.84
55733;BME280;41637;52.364;9.910;2022-12-18T01:38:49;102308.83;;;-8.52;83.15
55733;BME280;41637;52.364;9.910;2022-12-18T01:41:18;102308.81;;;-8.48;83.30
55733;BME280;41637;52.364;9.910;2022-12-18T01:43:55;102308.23;;;-8.43;83.45
55733;BME280;41637;52.364;9.910;2022-12-18T01:46:24;102308.52;;;-8.39;83.63
55733;BME280;41637;52.364;9.910;2022-12-18T01:49:00;102310.22;;;-8.37;83.69
55733;BME280;41637;52.364;9.910;2022-12-18T01:51:29;102307.13;;;-8.37;83.52
55733;BME280;41637;52.364;9.910;2022-12-18T01:53:57;102308.48;;;-8.36;83.41
55733;BME280;41637;52.364;9.910;2022-12-18T01:56:24;102313.46;;;-8.35;83.47
55733;BME280;41637;52.364;9.910;2022-12-18T01:59:06;102314.98;;;-8.33;83.19
55733;BME280;41637;52.364;9.910;2022-12-18T02:01:36;102320.30;;;-8.33;83.37
55733;BME280;41637;52.364;9.910;2022-12-18T02:04:26;102323.39;;;-8.34;83.16
55733;BME280;41637;52.364;9.910;2022-12-18T02:09:34;102317.73;;;-8.33;83.02
55733;BME280;41637;52.364;9.910;2022-12-18T02:12:27;102316.36;;;-8.35;82.95
55733;BME280;41637;52.364;9.910;2022-12-18T02:15:15;102321.39;;;-8.39;82.75
55733;BME280;41637;52.364;9.910;2022-12-18T02:17:48;102322.64;;;-8.42;82.76
55733;BME280;41637;52.364;9.910;2022-12-18T02:23:36;102324.02;;;-8.41;83.17
55733;BME280;41637;52.364;9.910;2022-12-18T02:26:18;102326.19;;;-8.40;83.10
55733;BME280;41637;52.364;9.910;2022-12-18T02:28:55;102328.78;;;-8.41;83.27
55733;BME280;41637;52.364;9.910;2022-12-18T02:31:26;102326.04;;;-8.40;83.49
55733;BME280;41637;52.364;9.910;2022-12-18T02:34:00;102321.73;;;-8.40;82.96
55733;BME280;41637;52.364;9.910;2022-12-18T02:36:31;102315.24;;;-8.41;82.94
55733;BME280;41637;52.364;9.910;2022-12-18T02:38:59;102311.52;;;-8.45;82.53
55733;BME280;41637;52.364;9.910;2022-12-18T02:41:28;102308.12;;;-8.49;82.46
55733;BME280;41637;52.364;9.910;2022-12-18T02:43:58;102305.57;;;-8.52;82.76
55733;BME280;41637;52.364;9.910;2022-12-18T02:46:25;102306.60;;;-8.52;82.95
55733;BME280;41637;52.364;9.910;2022-12-18T02:49:01;102305.73;;;-8.51;83.28
55733;BME280;41637;52.364;9.910;2022-12-18T02:51:35;102302.48;;;-8.52;83.21
55733;BME280;41637;52.364;9.910;2022-12-18T02:54:35;102306.94;;;-8.53;83.09
55733;BME280;41637;52.364;9.910;2022-12-18T02:57:13;102302.17;;;-8.55;82.94
55733;BME280;41637;52.364;9.910;2022-12-18T02:59:49;102304.92;;;-8.56;83.21
55733;BME280;41637;52.364;9.910;2022-12-18T03:05:20;102298.55;;;-8.54;83.80
55733;BME280;41637;52.364;9.910;2022-12-18T03:07:59;102306.92;;;-8.49;84.04
55733;BME280;41637;52.364;9.910;2022-12-18T03:10:31;102308.08;;;-8.44;84.10
55733;BME280;41637;52.364;9.910;2022-12-18T03:13:02;102306.30;;;-8.40;84.13
55733;BME280;41637;52.364;9.910;2022-12-18T03:15:35;102300.94;;;-8.35;84.48
55733;BME280;41637;52.364;9.910;2022-12-18T03:18:07;102300.39;;;-8.33;84.00
55733;BME280;41637;52.364;9.910;2022-12-18T03:20:36;102296.92;;;-8.30;84.02
55733;BME280;41637;52.364;9.910;2022-12-18T03:23:12;102299.66;;;-8.29;84.24
55733;BME280;41637;52.364;9.910;2022-12-18T03:25:42;102299.48;;;-8.27;84.26
55733;BME280;41637;52.364;9.910;2022-12-18T03:28:13;102290.90;;;-8.27;84.07
55733;BME280;41637;52.364;9.910;2022-12-18T03:30:43;102293.46;;;-8.26;84.44
55733;BME280;41637;52.364;9.910;2022-12-18T03:33:16;102293.96;;;-8.25;84.40
55733;BME280;41637;52.364;9.910;2022-12-18T03:35:46;102294.95;;;-8.20;84.51
55733;BME280;41637;52.364;9.910;2022-12-18T03:38:13;102291.83;;;-8.16;84.48
55733;BME280;41637;52.364;9.910;2022-12-18T03:43:31;102291.77;;;-8.10;84.88
55733;BME280;41637;52.364;9.910;2022-12-18T03:46:08;102296.02;;;-8.08;84.32
55733;BME280;41637;52.364;9.910;2022-12-18T03:48:42;102295.68;;;-8.07;84.62
55733;BME280;41637;52.364;9.910;2022-12-18T03:51:28;102296.19;;;-8.07;84.17
55733;BME280;41637;52.364;9.910;2022-12-18T03:54:02;102296.54;;;-8.07;83.99
55733;BME280;41637;52.364;9.910;2022-12-18T03:56:33;102296.73;;;-8.10;84.03
55733;BME280;41637;52.364;9.910;2022-12-18T03:59:03;102295.04;;;-8.11;83.81
55733;BME280;41637;52.364;9.910;2022-12-18T04:01:37;102298.65;;;-8.13;84.29
55733;BME280;41637;52.364;9.910;2022-12-18T04:04:05;102292.82;;;-8.13;83.77
55733;BME280;41637;52.364;9.910;2022-12-18T04:06:35;102291.97;;;-8.13;84.25
55733;BME280;41637;52.364;9.910;2022-12-18T04:09:02;102294.36;;;-8.13;84.31
55733;BME280;41637;52.364;9.910;2022-12-18T04:11:30;102297.27;;;-8.13;84.33
55733;BME280;41637;52.364;9.910;2022-12-18T04:13:57;102298.12;;;-8.11;84.41
55733;BME280;41637;52.364;9.910;2022-12-18T04:16:25;102303.94;;;-8.10;84.21
55733;BME280;41637;52.364;9.910;2022-12-18T04:18:52;102309.24;;;-8.08;84.02
55733;BME280;41637;52.364;9.910;2022-12-18T04:21:20;102306.83;;;-8.07;83.89
55733;BME280;41637;52.364;9.910;2022-12-18T04:23:46;102310.77;;;-8.06;83.65
55733;BME280;41637;52.364;9.910;2022-12-18T04:26:13;102310.27;;;-8.07;84.03
55733;BME280;41637;52.364;9.910;2022-12-18T04:28:39;102309.24;;;-8.08;83.59
55733;BME280;41637;52.364;9.910;2022-12-18T04:31:06;102308.41;;;-8.09;83.45
55733;BME280;41637;52.364;9.910;2022-12-18T04:33:32;102301.38;;;-8.10;83.76
55733;BME280;41637;52.364;9.910;2022-12-18T04:35:59;102297.61;;;-8.12;83.65
55733;BME280;41637;52.364;9.910;2022-12-18T04:38:25;102300.55;;;-8.13;83.50
55733;BME280;41637;52.364;9.910;2022-12-18T04:40:52;102301.59;;;-8.15;83.40
55733;BME280;41637;52.364;9.910;2022-12-18T04:43:18;102299.20;;;-8.16;83.36
55733;BME280;41637;52.364;9.910;2022-12-18T04:45:45;102296.81;;;-8.18;83.31
55733;BME280;41637;52.364;9.910;2022-12-18T04:48:11;102289.81;;;-8.22;83.52
55733;BME280;41637;52.364;9.910;2022-12-18T04:50:38;102292.58;;;-8.24;83.25
55733;BME280;41637;52.364;9.910;2022-12-18T04:53:06;102295.17;;;-8.26;83.43
55733;BME280;41637;52.364;9.910;2022-12-18T04:55:32;102296.40;;;-8.29;83.42
55733;BME280;41637;52.364;9.910;2022-12-18T04:57:59;102294.36;;;-8.30;83.53
55733;BME280;41637;52.364;9.910;2022-12-18T05:00:25;102292.47;;;-8.31;83.60
55733;BME280;41637;52.364;9.910;2022-12-18T05:02:52;102291.96;;;-8.31;83.66
55733;BME280;41637;52.364;9.910;2022-12-18T05:05:19;102290.58;;;-8.31;83.54
55733;BME280;41637;52.364;9.910;2022-12-18T05:07:45;102296.78;;;-8.32;83.68
55733;BME280;41637;52.364;9.910;2022-12-18T05:10:12;102297.79;;;-8.30;83.75
55733;BME280;41637;52.364;9.910;2022-12-18T05:12:38;102301.56;;;-8.31;83.61
55733;BME280;41637;52.364;9.910;2022-12-18T05:15:29;102303.98;;;-8.32;83.38
55733;BME280;41637;52.364;9.910;2022-12-18T05:17:57;102304.02;;;-8.34;83.35
55733;BME280;41637;52.364;9.910;2022-12-18T05:20:24;102298.17;;;-8.35;83.34
55733;BME280;41637;52.364;9.910;2022-12-18T05:22:51;102301.29;;;-8.36;83.63
55733;BME280;41637;52.364;9.910;2022-12-18T05:25:19;102300.42;;;-8.36;83.69
55733;BME280;41637;52.364;9.910;2022-12-18T05:27:46;102300.59;;;-8.36;84.05
55733;BME280;41637;52.364;9.910;2022-12-18T05:30:13;102302.30;;;-8.35;83.90
55733;BME280;41637;52.364;9.910;2022-12-18T05:32:41;102305.38;;;-8.33;83.92
55733;BME280;41637;52.364;9.910;2022-12-18T05:35:09;102307.74;;;-8.30;83.89
55733;BME280;41637;52.364;9.910;2022-12-18T05:37:36;102313.90;;;-8.29;84.02
55733;BME280;41637;52.364;9.910;2022-12-18T05:40:08;102323.84;;;-8.29;83.77
55733;BME280;41637;52.364;9.910;2022-12-18T05:42:35;102328.15;;;-8.29;83.62
55733;BME280;41637;52.364;9.910;2022-12-18T05:45:02;102327.11;;;-8.28;83.34
55733;BME280;41637;52.364;9.910;2022-12-18T05:47:28;102323.52;;;-8.29;83.14
55733;BME280;41637;52.364;9.910;2022-12-18T05:49:55;102328.67;;;-8.31;83.05
55733;BME280;41637;52.364;9.910;2022-12-18T05:52:21;102335.57;;;-8.33;83.00
55733;BME280;41637;52.364;9.910;2022-12-18T05:54:48;102338.34;;;-8.35;83.01
55733;BME280;41637;52.364;9.910;2022-12-18T05:57:14;102337.33;;;-8.38;83.05
55733;BME280;41637;52.364;9.910;2022-12-18T05:59:41;102343.00;;;-8.39;82.88
55733;BME280;41637;52.364;9.910;2022-12-18T06:02:07;102349.91;;;-8.41;82.99
55733;BME280;41637;52.364;9.910;2022-12-18T06:04:34;102362.44;;;-8.43;82.82
55733;BME280;41637;52.364;9.910;2022-12-18T06:07:00;102362.64;;;-8.45;82.71
55733;BME280;41637;52.364;9.910;2022-12-18T06:09:29;102354.92;;;-8.46;82.78
55733;BME280;41637;52.364;9.910;2022-12-18T06:11:56;102353.39;;;-8.48;82.93
55733;BME280;41637;52.364;9.910;2022-12-18T06:14:22;102349.30;;;-8.50;82.68
55733;BME280;41637;52.364;9.910;2022-12-18T06:16:50;102346.05;;;-8.52;82.26
55733;BME280;41637;52.364;9.910;2022-12-18T06:19:17;102346.25;;;-8.55;82.53
55733;BME280;41637;52.364;9.910;2022-12-18T06:21:43;102347.46;;;-8.56;82.69
55733;BME280;41637;52.364;9.910;2022-12-18T06:24:10;102347.30;;;-8.58;82.80
55733;BME280;41637;52.364;9.910;2022-12-18T06:26:38;102347.67;;;-8.60;82.53
55733;BME280;41637;52.364;9.910;2022-12-18T06:29:05;102344.95;;;-8.63;82.49
55733;BME280;41637;52.364;9.910;2022-12-18T06:31:32;102348.20;;;-8.64;82.52
55733;BME280;41637;52.364;9.910;2022-12-18T06:34:01;102347.87;;;-8.65;82.57
55733;BME280;41637;52.364;9.910;2022-12-18T06:36:29;102339.65;;;-8.67;82.59
55733;BME280;41637;52.364;9.910;2022-12-18T06:38:56;102334.35;;;-8.69;82.28
55733;BME280;41637;52.364;9.910;2022-12-18T06:41:22;102339.84;;;-8.71;82.72
55733;BME280;41637;52.364;9.910;2022-12-18T06:43:49;102339.01;;;-8.73;82.43
55733;BME280;41637;52.364;9.910;2022-12-18T06:46:15;102338.16;;;-8.74;82.67
55733;BME280;41637;52.364;9.910;2022-12-18T06:48:42;102344.15;;;-8.74;82.69
55733;BME280;41637;52.364;9.910;2022-12-18T06:51:08;102348.63;;;-8.74;82.62
55733;BME280;41637;52.364;9.910;2022-12-18T06:53:34;102348.46;;;-8.76;82.47
55733;BME280;41637;52.364;9.910;2022-12-18T06:56:01;102352.77;;;-8.79;82.75
55733;BME280;41637;52.364;9.910;2022-12-18T06:58:35;102351.41;;;-8.81;82.68
55733;BME280;41637;52.364;9.910;2022-12-18T07:01:03;102355.70;;;-8.83;82.91
55733;BME280;41637;52.364;9.910;2022-12-18T07:03:30;102350.40;;;-8.84;83.24
55733;BME280;41637;52.364;9.910;2022-12-18T07:05:57;102354.33;;;-8.83;83.31
55733;BME280;41637;52.364;9.910;2022-12-18T07:08:24;102359.65;;;-8.81;83.61
55733;BME280;41637;52.364;9.910;2022-12-18T07:10:51;102360.31;;;-8.78;83.47
55733;BME280;41637;52.364;9.910;2022-12-18T07:13:22;102359.11;;;-8.77;83.48
55733;BME280;41637;52.364;9.910;2022-12-18T07:15:48;102359.25;;;-8.74;83.67
55733;BME280;41637;52.364;9.910;2022-12-18T07:18:15;102368.14;;;-8.70;83.61
55733;BME280;41637;52.364;9.910;2022-12-18T07:20:41;102371.56;;;-8.67;83.79
55733;BME280;41637;52.364;9.910;2022-12-18T07:23:08;102373.60;;;-8.65;83.70
55733;BME280;41637;52.364;9.910;2022-12-18T07:25:35;102378.55;;;-8.63;83.45
55733;BME280;41637;52.364;9.910;2022-12-18T07:28:01;102386.91;;;-8.58;83.95
55733;BME280;41637;52.364;9.910;2022-12-18T07:30:28;102393.58;;;-8.53;83.52
55733;BME280;41637;52.364;9.910;2022-12-18T07:32:55;102398.03;;;-8.51;83.67
55733;BME280;41637;52.364;9.910;2022-12-18T07:35:21;102394.23;;;-8.48;83.48
55733;BME280;41637;52.364;9.910;2022-12-18T07:37:50;102389.23;;;-8.46;83.43
55733;BME280;41637;52.364;9.910;2022-12-18T07:40:17;102389.05;;;-8.43;83.56
55733;BME280;41637;52.364;9.910;2022-12-18T07:42:43;102391.56;;;-8.39;83.74
55733;BME280;41637;52.364;9.910;2022-12-18T07:45:10;102396.14;;;-8.33;83.80
55733;BME280;41637;52.364;9.910;2022-12-18T07:47:37;102404.84;;;-8.27;83.95
55733;BME280;41637;52.364;9.910;2022-12-18T07:50:04;102410.81;;;-8.21;83.87
55733;BME280;41637;52.364;9.910;2022-12-18T07:52:31;102416.26;;;-8.15;83.86
55733;BME280;41637;52.364;9.910;2022-12-18T07:54:58;102418.09;;;-8.10;83.78
55733;BME280;41637;52.364;9.910;2022-12-18T07:57:25;102417.02;;;-8.05;83.51
55733;BME280;41637;52.364;9.910;2022-12-18T08:00:11;102407.70;;;-8.00;83.62
55733;BME280;41637;52.364;9.910;2022-12-18T08:02:38;102405.79;;;-7.96;83.43
55733;BME280;41637;52.364;9.910;2022-12-18T08:05:05;102398.88;;;-7.93;83.40
55733;BME280;41637;52.364;9.910;2022-12-18T08:07:32;102390.98;;;-7.92;83.27
55733;BME280;41637;52.364;9.910;2022-12-18T08:09:58;102386.50;;;-7.90;83.06
55733;BME280;41637;52.364;9.910;2022-12-18T08:12:25;102385.09;;;-7.88;82.97
55733;BME280;41637;52.364;9.910;2022-12-18T08:14:51;102384.38;;;-7.85;82.75
55733;BME280;41637;52.364;9.910;2022-12-18T08:17:19;102382.64;;;-7.82;83.32
55733;BME280;41637;52.364;9.910;2022-12-18T08:19:46;102379.85;;;-7.76;83.34
55733;BME280;41637;52.364;9.910;2022-12-18T08:22:12;102380.13;;;-7.72;83.08
55733;BME280;41637;52.364;9.910;2022-12-18T08:24:39;102377.50;;;-7.67;82.76
55733;BME280;41637;52.364;9.910;2022-12-18T08:27:05;102370.93;;;-7.63;83.02
55733;BME280;41637;52.364;9.910;2022-12-18T08:29:52;102366.05;;;-7.57;83.07
55733;BME280;41637;52.364;9.910;2022-12-18T08:32:18;102368.38;;;-7.50;82.78
55733;BME280;41637;52.364;9.910;2022-12-18T08:34:45;102369.52;;;-7.44;82.76
55733;BME280;41637;52.364;9.910;2022-12-18T08:37:11;102372.52;;;-7.39;82.73
55733;BME280;41637;52.364;9.910;2022-12-18T08:39:37;102372.45;;;-7.32;82.60
55733;BME280;41637;52.364;9.910;2022-12-18T08:42:04;102375.97;;;-7.24;82.51
55733;BME280;41637;52.364;9.910;2022-12-18T08:44:49;102376.88;;;-7.15;82.65
55733;BME280;41637;52.364;9.910;2022-12-18T08:47:16;102366.48;;;-7.08;82.34
55733;BME280;41637;52.364;9.910;2022-12-18T08:49:42;102359.19;;;-7.03;82.02
55733;BME280;41637;52.364;9.910;2022-12-18T08:52:08;102361.51;;;-6.97;82.25
55733;BME280;41637;52.364;9.910;2022-12-18T08:54:35;102351.95;;;-6.90;82.22
55733;BME280;41637;52.364;9.910;2022-12-18T08:57:02;102357.16;;;-6.81;82.33
55733;BME280;41637;52.364;9.910;2022-12-18T08:59:28;102356.67;;;-6.72;82.39
55733;BME280;41637;52.364;9.910;2022-12-18T09:01:55;102356.70;;;-6.63;82.47
55733;BME280;41637;52.364;9.910;2022-12-18T09:04:22;102361.69;;;-6.51;82.64
55733;BME280;41637;52.364;9.910;2022-12-18T09:06:48;102360.67;;;-6.41;82.29
55733;BME280;41637;52.364;9.910;2022-12-18T09:09:16;102357.59;;;-6.31;82.41
55733;BME280;41637;52.364;9.910;2022-12-18T09:11:43;102355.85;;;-6.20;82.46
55733;BME280;41637;52.364;9.910;2022-12-18T09:14:09;102355.30;;;-6.08;82.32
55733;BME280;41637;52.364;9.910;2022-12-18T09:16:36;102357.48;;;-5.96;82.44
55733;BME280;41637;52.364;9.910;2022-12-18T09:19:04;102355.56;;;-5.86;82.39
55733;BME280;41637;52.364;9.910;2022-12-18T09:21:33;102349.83;;;-5.75;82.32
55733;BME280;41637;52.364;9.910;2022-12-18T09:24:03;102340.14;;;-5.64;82.18
55733;BME280;41637;52.364;9.910;2022-12-18T09:26:33;102337.15;;;-5.52;82.25
55733;BME280;41637;52.364;9.910;2022-12-18T09:29:00;102336.91;;;-5.41;82.13
55733;BME280;41637;52.364;9.910;2022-12-18T09:31:26;102334.44;;;-5.30;82.10
55733;BME280;41637;52.364;9.910;2022-12-18T09:33:55;102337.16;;;-5.19;82.03
55733;BME280;41637;52.364;9.910;2022-12-18T09:36:21;102338.80;;;-5.08;81.96
55733;BME280;41637;52.364;9.910;2022-12-18T09:38:48;102343.13;;;-4.93;82.08
55733;BME280;41637;52.364;9.910;2022-12-18T09:43:50;102342.59;;;-4.62;81.74
55733;BME280;41637;52.364;9.910;2022-12-18T09:46:31;102342.42;;;-4.48;81.49
55733;BME280;41637;52.364;9.910;2022-12-18T09:49:01;102341.27;;;-4.29;81.68
55733;BME280;41637;52.364;9.910;2022-12-18T09:51:37;102341.79;;;-4.09;81.50
55733;BME280;41637;52.364;9.910;2022-12-18T09:54:22;102344.36;;;-3.88;81.49
55733;BME280;41637;52.364;9.910;2022-12-18T09:56:51;102349.80;;;-3.66;81.15
55733;BME280;41637;52.364;9.910;2022-12-18T09:59:24;102353.63;;;-3.48;80.33
55733;BME280;41637;52.364;9.910;2022-12-18T10:01:53;102356.15;;;-3.39;79.08
55733;BME280;41637;52.364;9.910;2022-12-18T10:04:20;102366.38;;;-3.35;77.82
55733;BME280;41637;52.364;9.910;2022-12-18T10:07:19;102361.20;;;-3.29;77.46
55733;BME280;41637;52.364;9.910;2022-12-18T10:10:17;102359.16;;;-3.18;77.45
55733;BME280;41637;52.364;9.910;2022-12-18T10:13:05;102354.69;;;-3.07;77.60
55733;BME280;41637;52.364;9.910;2022-12-18T10:15:43;102353.20;;;-2.93;77.58
55733;BME280;41637;52.364;9.910;2022-12-18T10:18:17;102359.86;;;-2.73;78.03
55733;BME280;41637;52.364;9.910;2022-12-18T10:21:00;102369.05;;;-2.52;77.88
55733;BME280;41637;52.364;9.910;2022-12-18T10:23:42;102370.98;;;-2.30;77.59
55733;BME280;41637;52.364;9.910;2022-12-18T10:26:13;102366.63;;;-2.09;77.32
55733;BME280;41637;52.364;9.910;2022-12-18T10:28:41;102362.70;;;-1.90;76.93
55733;BME280;41637;52.364;9.910;2022-12-18T10:31:16;102356.48;;;-1.77;75.92
55733;BME280;41637;52.364;9.910;2022-12-18T10:33:43;102349.50;;;-1.65;75.81
55733;BME280;41637;52.364;9.910;2022-12-18T10:36:10;102354.91;;;-1.52;75.73
55733;BME280;41637;52.364;9.910;2022-12-18T10:38:37;102352.58;;;-1.40;75.33
55733;BME280;41637;52.364;9.910;2022-12-18T10:41:06;102352.07;;;-1.31;75.07
55733;BME280;41637;52.364;9.910;2022-12-18T10:43:40;102350.94;;;-1.24;74.56
55733;BME280;41637;52.364;9.910;2022-12-18T10:51:36;102344.42;;;-1.07;73.89
55733;BME280;41637;52.364;9.910;2022-12-18T10:54:06;102344.98;;;-0.96;73.82
55733;BME280;41637;52.364;9.910;2022-12-18T10:56:39;102342.95;;;-0.83;73.72
55733;BME280;41637;52.364;9.910;2022-12-18T10:59:08;102346.63;;;-0.75;72.66
55733;BME280;41637;52.364;9.910;2022-12-18T11:04:16;102336.07;;;-0.68;71.60
55733;BME280;41637;52.364;9.910;2022-12-18T11:07:03;102329.33;;;-0.68;71.21
55733;BME280;41637;52.364;9.910;2022-12-18T11:09:32;102320.70;;;-0.70;71.07
55733;BME280;41637;52.364;9.910;2022-12-18T11:12:02;102301.45;;;-0.67;70.95
55733;BME280;41637;52.364;9.910;2022-12-18T11:14:32;102294.96;;;-0.53;70.94
55733;BME280;41637;52.364;9.910;2022-12-18T11:17:00;102290.95;;;-0.39;71.00
55733;BME280;41637;52.364;9.910;2022-12-18T11:19:53;102302.15;;;-0.29;70.65
55733;BME280;41637;52.364;9.910;2022-12-18T11:22:24;102313.27;;;-0.12;70.54
55733;BME280;41637;52.364;9.910;2022-12-18T11:25:04;102308.33;;;0.10;70.33
55733;BME280;41637;52.364;9.910;2022-12-18T11:27:54;102302.69;;;0.39;69.32
55733;BME280;41637;52.364;9.910;2022-12-18T11:30:23;102309.64;;;0.47;68.23
55733;BME280;41637;52.364;9.910;2022-12-18T11:32:53;102313.54;;;0.45;67.69
55733;BME280;41637;52.364;9.910;2022-12-18T11:35:39;102314.70;;;0.46;67.43
55733;BME280;41637;52.364;9.910;2022-12-18T11:38:26;102311.84;;;0.74;67.50
55733;BME280;41637;52.364;9.910;2022-12-18T11:41:10;102315.27;;;1.16;66.36
55733;BME280;41637;52.364;9.910;2022-12-18T11:43:45;102311.48;;;1.58;64.91
55733;BME280;41637;52.364;9.910;2022-12-18T11:46:18;102315.17;;;2.02;64.39
55733;BME280;41637;52.364;9.910;2022-12-18T11:48:56;102309.04;;;2.42;63.09
55733;BME280;41637;52.364;9.910;2022-12-18T11:51:41;102296.63;;;2.78;61.29
55733;BME280;41637;52.364;9.910;2022-12-18T11:54:15;102287.38;;;3.15;60.44
55733;BME280;41637;52.364;9.910;2022-12-18T11:59:42;102266.52;;;4.02;58.42
55733;BME280;41637;52.364;9.910;2022-12-18T12:02:33;102248.27;;;4.37;56.46
55733;BME280;41637;52.364;9.910;2022-12-18T12:14:14;102242.10;;;4.87;52.82
55733;BME280;41637;52.364;9.910;2022-12-18T12:19:38;102218.19;;;4.96;52.52
55733;BME280;41637;52.364;9.910;2022-12-18T12:28:44;102209.81;;;3.96;52.44
55733;BME280;41637;52.364;9.910;2022-12-18T12:31:14;102217.10;;;3.57;54.01
55733;BME280;41637;52.364;9.910;2022-12-18T12:36:37;102208.50;;;3.13;54.61
55733;BME280;41637;52.364;9.910;2022-12-18T12:39:10;102212.88;;;2.82;55.20
55733;BME280;41637;52.364;9.910;2022-12-18T12:41:41;102211.25;;;2.59;56.05
55733;BME280;41637;52.364;9.910;2022-12-18T12:44:32;102205.16;;;2.36;56.79
55733;BME280;41637;52.364;9.910;2022-12-18T12:47:13;102205.08;;;2.08;57.81
55733;BME280;41637;52.364;9.910;2022-12-18T12:49:42;102198.13;;;1.75;58.63
55733;BME280;41637;52.364;9.910;2022-12-18T12:52:20;102187.90;;;1.47;59.32
55733;BME280;41637;52.364;9.910;2022-12-18T12:54:54;102196.77;;;1.16;60.06
55733;BME280;41637;52.364;9.910;2022-12-18T12:57:43;102200.59;;;0.88;60.77
55733;BME280;41637;52.364;9.910;2022-12-18T13:00:16;102195.93;;;0.62;61.47
55733;BME280;41637;52.364;9.910;2022-12-18T13:02:51;102190.20;;;0.36;62.20
55733;BME280;41637;52.364;9.910;2022-12-18T13:05:31;102187.28;;;0.17;63.12
55733;BME280;41637;52.364;9.910;2022-12-18T13:08:04;102186.42;;;-0.07;63.94
55733;BME280;41637;52.364;9.910;2022-12-18T13:13:05;102188.20;;;-0.39;65.01
55733;BME280;41637;52.364;9.910;2022-12-18T13:16:06;102179.16;;;-0.55;65.62
55733;BME280;41637;52.364;9.910;2022-12-18T13:18:33;102180.41;;;-0.72;66.17
55733;BME280;41637;52.364;9.910;2022-12-18T13:23:39;102180.95;;;-0.93;66.90
55733;BME280;41637;52.364;9.910;2022-12-18T13:36:55;102188.98;;;-1.37;68.45
55733;BME280;41637;52.364;9.910;2022-12-18T13:39:24;102189.41;;;-1.43;68.74
55733;BME280;41637;52.364;9.910;2022-12-18T13:44:34;102185.98;;;-1.58;69.22
55733;BME280;41637;52.364;9.910;2022-12-18T13:47:32;102187.56;;;-1.68;69.62
55733;BME280;41637;52.364;9.910;2022-12-18T13:50:01;102184.30;;;-1.82;70.08
55733;BME280;41637;52.364;9.910;2022-12-18T13:52:37;102179.45;;;-1.96;70.69
55733;BME280;41637;52.364;9.910;2022-12-18T13:55:11;102177.94;;;-2.07;71.25
55733;BME280;41637;52.364;9.910;2022-12-18T13:57:41;102173.82;;;-2.17;71.74
55733;BME280;41637;52.364;9.910;2022-12-18T14:00:28;102178.19;;;-2.23;71.95
55733;BME280;41637;52.364;9.910;2022-12-18T14:02:57;102171.71;;;-2.30;72.46
55733;BME280;41637;52.364;9.910;2022-12-18T14:07:53;102161.11;;;-2.44;73.02
55733;BME280;41637;52.364;9.910;2022-12-18T14:10:21;102149.83;;;-2.53;73.46
55733;BME280;41637;52.364;9.910;2022-12-18T14:13:09;102141.20;;;-2.59;73.53
55733;BME280;41637;52.364;9.910;2022-12-18T14:15:46;102141.59;;;-2.65;73.82
55733;BME280;41637;52.364;9.910;2022-12-18T14:18:27;102143.02;;;-2.71;74.18